createdAt,value
2022-10-18T12:04:34.874Z,37.20
2022-10-18T12:07:06.234Z,37.00
2022-10-18T12:09:37.362Z,36.80
2022-10-18T12:12:08.995Z,36.30
2022-10-18T12:14:40.024Z,36.50
2022-10-18T12:17:40.811Z,36.70
2022-10-18T12:20:04.052Z,36.50
2022-10-18T12:22:38.547Z,37.00
2022-10-18T12:25:11.420Z,36.90
2022-10-18T12:27:41.308Z,36.70
2022-10-18T12:30:15.519Z,36.80
2022-10-18T12:32:56.533Z,36.30
2022-10-18T12:35:36.665Z,36.20
2022-10-18T12:38:15.854Z,35.80
2022-10-18T12:40:44.922Z,36.30
2022-10-18T12:43:18.384Z,36.60
2022-10-18T12:45:50.729Z,36.20
2022-10-18T12:48:28.835Z,35.20
2022-10-18T12:51:00.295Z,34.90
2022-10-18T12:53:28.919Z,35.20
2022-10-18T12:56:13.526Z,35.20
2022-10-18T12:58:42.399Z,35.60
2022-10-18T13:01:10.279Z,35.90
2022-10-18T13:03:50.847Z,35.70
2022-10-18T13:06:20.114Z,35.30
2022-10-18T13:08:48.257Z,34.30
2022-10-18T13:11:36.818Z,34.20
2022-10-18T13:14:23.216Z,34.10
2022-10-18T13:16:54.176Z,34.40
2022-10-18T13:19:24.674Z,34.30
2022-10-18T13:21:57.840Z,34.50
2022-10-18T13:24:30.158Z,34.60
2022-10-18T13:27:17.474Z,34.30
2022-10-18T13:29:58.411Z,33.70
2022-10-18T13:32:32.942Z,33.30
2022-10-18T13:35:01.081Z,33.90
2022-10-18T13:37:30.761Z,34.50
2022-10-18T13:40:15.742Z,34.30
2022-10-18T13:42:43.585Z,34.40
2022-10-18T13:45:35.818Z,34.60
2022-10-18T13:48:22.154Z,34.70
2022-10-18T13:50:50.782Z,34.60
2022-10-18T13:53:43.719Z,34.50
2022-10-18T13:56:18.103Z,34.10
2022-10-18T13:59:05.733Z,34.00
2022-10-18T14:01:42.647Z,34.20
2022-10-18T14:04:32.299Z,34.10
2022-10-18T14:07:02.526Z,33.80
2022-10-18T14:09:44.499Z,33.20
2022-10-18T14:12:17.970Z,33.30
2022-10-18T14:14:47.091Z,33.50
2022-10-18T14:17:21.083Z,33.20
2022-10-18T14:19:52.226Z,33.60
2022-10-18T14:22:21.944Z,33.40
2022-10-18T14:24:52.467Z,33.30
2022-10-18T14:27:21.352Z,33.30
2022-10-18T14:29:49.791Z,33.40
2022-10-18T14:32:25.083Z,33.10
2022-10-18T14:34:55.748Z,32.90
2022-10-18T14:37:32.843Z,32.80
2022-10-18T14:40:02.356Z,32.90
2022-10-18T14:42:30.582Z,32.80
2022-10-18T14:44:59.098Z,32.70
2022-10-18T14:47:27.833Z,32.70
2022-10-18T14:49:57.749Z,32.70
2022-10-18T14:52:30.554Z,32.00
2022-10-18T14:55:03.881Z,31.60
2022-10-18T14:57:33.874Z,31.50
2022-10-18T15:00:03.236Z,31.60
2022-10-18T15:02:32.610Z,31.60
2022-10-18T15:05:06.122Z,31.30
2022-10-18T15:07:34.464Z,31.00
2022-10-18T15:10:05.259Z,30.90
2022-10-18T15:12:40.901Z,30.80
2022-10-18T15:15:18.220Z,30.80
2022-10-18T15:17:46.417Z,30.50
2022-10-18T15:20:21.748Z,30.10
2022-10-18T15:22:49.713Z,29.80
2022-10-18T15:25:23.716Z,29.70
2022-10-18T15:27:52.710Z,29.70
2022-10-18T15:30:22.929Z,29.50
2022-10-18T15:32:52.434Z,29.10
2022-10-18T15:35:25.873Z,28.70
2022-10-18T15:37:54.476Z,28.70
2022-10-18T15:40:37.598Z,28.40
2022-10-18T15:43:06.989Z,28.40
2022-10-18T15:45:36.394Z,28.40
2022-10-18T15:48:18.015Z,28.10
2022-10-18T15:50:47.632Z,27.70
2022-10-18T15:53:26.429Z,27.60
2022-10-18T15:55:56.639Z,27.30
2022-10-18T15:58:25.422Z,26.90
2022-10-18T16:00:54.088Z,26.70
2022-10-18T16:03:23.940Z,26.40
2022-10-18T16:05:54.176Z,26.20
2022-10-18T16:08:23.482Z,25.90
2022-10-18T16:10:51.490Z,25.60
2022-10-18T16:13:20.738Z,25.50
2022-10-18T16:15:48.544Z,25.20
2022-10-18T16:18:17.961Z,25.00
2022-10-18T16:20:46.301Z,24.80
2022-10-18T16:23:17.073Z,24.60
2022-10-18T16:25:44.916Z,24.20
2022-10-18T16:28:14.194Z,23.90
2022-10-18T16:30:44.353Z,23.70
2022-10-18T16:33:12.194Z,23.30
2022-10-18T16:35:40.016Z,23.20
2022-10-18T16:38:15.008Z,22.90
2022-10-18T16:40:42.851Z,22.70
2022-10-18T16:43:10.697Z,22.50
2022-10-18T16:45:38.529Z,22.30
2022-10-18T16:48:07.964Z,22.20
2022-10-18T16:50:35.751Z,22.00
2022-10-18T16:53:03.562Z,21.90
2022-10-18T16:55:31.362Z,21.60
2022-10-18T16:57:59.141Z,21.50
2022-10-18T17:00:26.966Z,21.20
2022-10-18T17:02:54.748Z,21.10
2022-10-18T17:05:24.110Z,20.80
2022-10-18T17:07:51.930Z,20.90
2022-10-18T17:10:24.085Z,20.60
2022-10-18T17:12:52.517Z,20.40
2022-10-18T17:15:20.651Z,20.20
2022-10-18T17:20:20.180Z,19.90
2022-10-18T17:22:49.595Z,19.70
2022-10-18T17:25:17.905Z,19.70
2022-10-18T17:27:46.185Z,19.60
2022-10-18T17:30:14.575Z,19.50
2022-10-18T17:32:44.338Z,19.40
2022-10-18T17:35:12.668Z,19.30
2022-10-18T17:37:44.042Z,19.10
2022-10-18T17:40:15.215Z,19.00
2022-10-18T17:42:43.256Z,18.90
2022-10-18T17:45:12.308Z,18.80
2022-10-18T17:47:40.085Z,18.70
2022-10-18T17:50:08.049Z,18.50
2022-10-18T17:52:35.884Z,18.40
2022-10-18T17:55:03.729Z,18.30
2022-10-18T17:57:33.093Z,18.30
2022-10-18T18:00:03.248Z,18.20
2022-10-18T18:02:31.220Z,18.20
2022-10-18T18:04:59.176Z,18.10
2022-10-18T18:07:27.011Z,18.00
2022-10-18T18:09:54.870Z,17.90
2022-10-18T18:12:22.716Z,17.80
2022-10-18T18:14:51.866Z,17.80
2022-10-18T18:17:28.629Z,17.60
2022-10-18T18:20:02.083Z,17.60
2022-10-18T18:22:30.007Z,17.40
2022-10-18T18:24:57.929Z,17.40
2022-10-18T18:27:25.800Z,17.30
2022-10-18T18:29:55.050Z,17.30
2022-10-18T18:32:22.878Z,17.20
2022-10-18T18:34:50.652Z,17.10
2022-10-18T18:37:18.451Z,17.00
2022-10-18T18:39:46.237Z,17.00
2022-10-18T18:42:14.117Z,17.00
2022-10-18T18:44:45.870Z,17.00
2022-10-18T18:47:15.153Z,16.90
2022-10-18T18:49:43.354Z,16.70
2022-10-18T18:52:11.194Z,16.60
2022-10-18T18:54:39.018Z,16.60
2022-10-18T18:57:06.840Z,16.60
2022-10-18T18:59:34.630Z,16.40
2022-10-18T19:02:02.454Z,16.40
2022-10-18T19:04:31.703Z,16.40
2022-10-18T19:06:59.469Z,16.30
2022-10-18T19:09:27.539Z,16.10
2022-10-18T19:11:56.347Z,16.00
2022-10-18T19:14:25.835Z,16.00
2022-10-18T19:16:54.792Z,16.00
2022-10-18T19:19:23.510Z,15.90
2022-10-18T19:21:53.472Z,15.90
2022-10-18T19:24:21.434Z,15.90
2022-10-18T19:26:50.996Z,15.80
2022-10-18T19:29:21.280Z,15.70
2022-10-18T19:31:49.461Z,15.60
2022-10-18T19:34:17.991Z,15.60
2022-10-18T19:36:46.629Z,15.50
2022-10-18T19:39:18.228Z,15.40
2022-10-18T19:41:46.462Z,15.40
2022-10-18T19:44:14.269Z,15.40
2022-10-18T19:46:42.160Z,15.30
2022-10-18T19:49:10.111Z,15.30
2022-10-18T19:51:38.178Z,15.30
2022-10-18T19:54:06.092Z,15.20
2022-10-18T19:56:35.267Z,15.10
2022-10-18T19:59:03.103Z,15.10
2022-10-18T20:01:31.265Z,15.00
2022-10-18T20:03:59.530Z,15.00
2022-10-18T20:06:27.497Z,14.90
2022-10-18T20:08:55.655Z,14.90
2022-10-18T20:11:24.981Z,14.80
2022-10-18T20:13:54.411Z,14.80
2022-10-18T20:16:27.702Z,14.80
2022-10-18T20:18:56.674Z,14.80
2022-10-18T20:21:24.457Z,14.70
2022-10-18T20:23:52.294Z,14.70
2022-10-18T20:26:20.924Z,14.70
2022-10-18T20:28:49.487Z,14.50
2022-10-18T20:31:19.913Z,14.50
2022-10-18T20:33:48.430Z,14.50
2022-10-18T20:36:17.126Z,14.40
2022-10-18T20:38:45.705Z,14.40
2022-10-18T20:41:16.915Z,14.30
2022-10-18T20:43:45.128Z,14.30
2022-10-18T20:46:12.963Z,14.20
2022-10-18T20:48:42.172Z,14.20
2022-10-18T20:51:13.124Z,14.00
2022-10-18T20:53:41.344Z,14.00
2022-10-18T20:56:09.909Z,14.00
2022-10-18T20:58:38.777Z,13.90
2022-10-18T21:01:07.616Z,13.90
2022-10-18T21:03:37.118Z,13.80
2022-10-18T21:06:10.837Z,13.80
2022-10-18T21:08:39.094Z,13.70
2022-10-18T21:11:07.529Z,13.70
2022-10-18T21:13:35.399Z,13.90
2022-10-18T21:16:04.238Z,13.50
2022-10-18T21:18:32.833Z,13.40
2022-10-18T21:21:07.663Z,13.40
2022-10-18T21:23:37.091Z,13.40
2022-10-18T21:31:12.604Z,13.20
2022-10-18T21:33:40.392Z,13.20
2022-10-18T21:38:40.060Z,13.10
2022-10-18T21:41:11.027Z,13.20
2022-10-18T21:43:40.460Z,13.00
2022-10-18T21:46:08.766Z,12.80
2022-10-18T21:48:36.852Z,12.80
2022-10-18T21:51:05.250Z,12.80
2022-10-18T21:53:33.374Z,12.70
2022-10-18T21:56:06.833Z,12.70
2022-10-18T21:58:35.060Z,13.00
2022-10-18T22:01:02.990Z,12.80
2022-10-18T22:03:30.768Z,12.70
2022-10-18T22:05:59.163Z,12.50
2022-10-18T22:08:26.949Z,12.70
2022-10-18T22:10:54.809Z,12.70
2022-10-18T22:13:24.227Z,12.40
2022-10-18T22:15:52.014Z,12.40
2022-10-18T22:20:54.190Z,12.30
2022-10-18T22:25:50.142Z,12.40
2022-10-18T22:28:18.082Z,12.10
2022-10-18T22:30:47.185Z,12.00
2022-10-18T22:33:14.978Z,12.10
2022-10-18T22:35:42.771Z,12.00
2022-10-18T22:38:10.590Z,12.00
2022-10-18T22:40:38.391Z,11.90
2022-10-18T22:43:06.165Z,11.90
2022-10-18T22:45:33.962Z,11.90
2022-10-18T22:48:03.102Z,11.90
2022-10-18T22:50:30.930Z,11.80
2022-10-18T22:52:58.788Z,11.80
2022-10-18T22:55:26.573Z,11.70
2022-10-18T22:57:56.370Z,11.70
2022-10-18T23:00:24.223Z,11.60
2022-10-18T23:02:52.062Z,11.50
2022-10-18T23:05:21.216Z,11.40
2022-10-18T23:07:50.047Z,11.40
2022-10-18T23:10:18.014Z,11.40
2022-10-18T23:12:45.801Z,11.50
2022-10-18T23:15:13.588Z,11.40
2022-10-18T23:17:41.371Z,11.40
2022-10-18T23:20:09.623Z,11.40
2022-10-18T23:22:38.783Z,11.30
2022-10-18T23:25:06.954Z,11.30
2022-10-18T23:27:34.799Z,11.20
2022-10-18T23:30:02.615Z,11.10
2022-10-18T23:32:30.521Z,11.10
2022-10-18T23:34:58.392Z,11.20
2022-10-18T23:37:26.213Z,11.10
2022-10-18T23:39:55.407Z,11.20
2022-10-18T23:42:23.241Z,11.30
2022-10-18T23:44:51.032Z,11.10
2022-10-18T23:47:19.077Z,11.10
2022-10-18T23:49:46.861Z,11.10
2022-10-18T23:52:14.690Z,11.00
2022-10-18T23:57:16.589Z,11.10
2022-10-18T23:59:44.437Z,11.00
